createdAt,value
2023-09-20T00:01:52.879Z,83.63
2023-09-20T00:04:20.937Z,83.07
2023-09-20T00:06:47.457Z,83.15
2023-09-20T00:09:15.815Z,82.96
2023-09-20T00:11:44.481Z,82.86
2023-09-20T00:14:11.433Z,82.98
2023-09-20T00:16:37.920Z,83.22
2023-09-20T00:19:04.466Z,83.20
2023-09-20T00:21:30.964Z,83.17
2023-09-20T00:23:57.453Z,83.23
2023-09-20T00:26:24.617Z,83.21
2023-09-20T00:28:51.232Z,83.05
2023-09-20T00:31:17.890Z,83.10
2023-09-20T00:33:45.312Z,82.90
2023-09-20T00:36:21.616Z,83.28
2023-09-20T00:38:49.024Z,83.45
2023-09-20T00:41:16.445Z,83.42
2023-09-20T00:43:43.093Z,83.45
2023-09-20T00:46:10.810Z,83.38
2023-09-20T00:48:40.180Z,83.51
2023-09-20T00:51:07.624Z,83.33
2023-09-20T00:53:36.612Z,83.05
2023-09-20T00:56:06.078Z,83.17
2023-09-20T00:58:35.638Z,83.01
2023-09-20T01:01:05.175Z,83.07
2023-09-20T01:03:36.773Z,82.81
2023-09-20T01:06:09.891Z,82.95
2023-09-20T01:08:36.451Z,83.27
2023-09-20T01:11:03.035Z,83.74
2023-09-20T01:13:29.620Z,83.90
2023-09-20T01:15:56.209Z,84.03
2023-09-20T01:18:22.835Z,84.29
2023-09-20T01:20:49.443Z,85.02
2023-09-20T01:23:15.968Z,84.61
2023-09-20T01:25:44.574Z,84.78
2023-09-20T01:28:12.048Z,84.48
2023-09-20T01:30:40.436Z,84.67
2023-09-20T01:33:08.499Z,84.89
2023-09-20T01:35:36.097Z,84.54
2023-09-20T01:38:07.804Z,83.58
2023-09-20T01:40:35.839Z,83.68
2023-09-20T01:43:07.707Z,83.97
2023-09-20T01:45:38.294Z,84.05
2023-09-20T01:48:11.942Z,84.35
2023-09-20T01:50:39.510Z,84.06
2023-09-20T01:53:09.595Z,84.30
2023-09-20T01:55:38.408Z,84.03
2023-09-20T01:58:08.335Z,84.12
2023-09-20T02:00:41.327Z,83.96
2023-09-20T02:03:17.652Z,84.09
2023-09-20T02:05:45.763Z,83.99
2023-09-20T02:08:12.352Z,83.94
2023-09-20T02:10:39.497Z,83.95
2023-09-20T02:13:07.250Z,84.30
2023-09-20T02:15:41.973Z,84.08
2023-09-20T02:18:10.439Z,83.70
2023-09-20T02:20:40.586Z,83.33
2023-09-20T02:23:13.872Z,83.70
2023-09-20T02:25:42.210Z,83.58
2023-09-20T02:28:09.550Z,83.63
2023-09-20T02:30:39.491Z,83.94
2023-09-20T02:33:08.615Z,83.87
2023-09-20T02:35:37.868Z,83.61
2023-09-20T02:38:07.961Z,83.98
2023-09-20T02:40:36.356Z,84.21
2023-09-20T02:43:05.278Z,84.34
2023-09-20T02:45:34.575Z,84.52
2023-09-20T02:48:05.951Z,84.49
2023-09-20T02:50:33.167Z,84.52
2023-09-20T02:53:00.138Z,84.35
2023-09-20T02:55:28.240Z,84.07
2023-09-20T02:57:56.082Z,84.02
2023-09-20T03:00:31.263Z,83.66
2023-09-20T03:03:02.369Z,84.00
2023-09-20T03:05:34.288Z,83.73
2023-09-20T03:08:12.751Z,84.05
2023-09-20T03:10:42.732Z,84.19
2023-09-20T03:13:18.365Z,84.40
2023-09-20T03:15:46.075Z,84.43
2023-09-20T03:18:14.710Z,84.78
2023-09-20T03:20:45.034Z,84.80
2023-09-20T03:23:11.968Z,84.80
2023-09-20T03:25:38.513Z,84.60
2023-09-20T03:28:08.973Z,84.00
2023-09-20T03:30:37.625Z,84.31
2023-09-20T03:33:05.665Z,84.33
2023-09-20T03:35:33.581Z,84.56
2023-09-20T03:38:00.137Z,84.42
2023-09-20T03:40:29.434Z,83.94
2023-09-20T03:42:55.981Z,84.21
2023-09-20T03:45:25.137Z,84.23
2023-09-20T03:47:58.067Z,84.24
2023-09-20T03:50:25.374Z,83.87
2023-09-20T03:52:53.332Z,84.18
2023-09-20T03:55:20.911Z,84.41
2023-09-20T03:57:47.476Z,84.08
2023-09-20T04:00:18.032Z,83.74
2023-09-20T04:02:49.435Z,84.09
2023-09-20T04:05:26.895Z,84.16
2023-09-20T04:08:01.845Z,84.05
2023-09-20T04:10:28.928Z,84.27
2023-09-20T04:12:55.780Z,84.68
2023-09-20T04:15:22.280Z,84.11
2023-09-20T04:17:49.711Z,84.15
2023-09-20T04:20:16.422Z,84.62
2023-09-20T04:22:42.927Z,84.88
2023-09-20T04:25:12.270Z,84.74
2023-09-20T04:27:39.279Z,84.43
2023-09-20T04:30:09.069Z,84.69
2023-09-20T04:32:37.123Z,84.47
2023-09-20T04:35:05.550Z,84.45
2023-09-20T04:37:32.392Z,84.60
2023-09-20T04:39:58.922Z,84.49
2023-09-20T04:42:25.384Z,84.43
2023-09-20T04:44:52.471Z,84.68
2023-09-20T04:47:19.490Z,84.83
2023-09-20T04:49:46.386Z,84.63
2023-09-20T04:52:16.876Z,84.45
2023-09-20T04:54:45.374Z,84.28
2023-09-20T04:57:14.238Z,84.28
2023-09-20T04:59:43.597Z,84.00
2023-09-20T05:02:10.649Z,83.84
2023-09-20T05:04:37.556Z,83.60
2023-09-20T05:07:07.913Z,83.00
2023-09-20T05:09:35.701Z,83.29
2023-09-20T05:12:03.755Z,82.66
2023-09-20T05:14:30.753Z,82.27
2023-09-20T05:16:57.350Z,82.81
2023-09-20T05:19:26.749Z,83.17
2023-09-20T05:21:53.353Z,82.86
2023-09-20T05:24:19.932Z,82.71
2023-09-20T05:26:46.461Z,82.67
2023-09-20T05:29:13.038Z,83.31
2023-09-20T05:31:39.650Z,82.94
2023-09-20T05:34:06.657Z,83.01
2023-09-20T05:36:33.905Z,82.42
2023-09-20T05:39:00.546Z,82.54
2023-09-20T05:41:29.352Z,82.80
2023-09-20T05:43:56.256Z,83.21
2023-09-20T05:46:25.945Z,83.56
2023-09-20T05:48:53.687Z,83.86
2023-09-20T05:51:21.564Z,83.14
2023-09-20T05:53:52.119Z,82.21
2023-09-20T05:56:20.122Z,81.33
2023-09-20T05:58:47.004Z,80.62
2023-09-20T06:01:19.174Z,81.41
2023-09-20T06:03:47.838Z,81.87
2023-09-20T06:06:15.233Z,82.24
2023-09-20T06:08:43.678Z,81.16
2023-09-20T06:11:10.725Z,80.77
2023-09-20T06:13:39.071Z,80.03
2023-09-20T06:16:08.461Z,79.33
2023-09-20T06:18:37.685Z,78.80
2023-09-20T06:21:05.003Z,78.82
2023-09-20T06:23:32.896Z,77.76
2023-09-20T06:26:05.506Z,76.71
2023-09-20T06:28:32.671Z,77.68
2023-09-20T06:31:00.455Z,77.09
2023-09-20T06:33:27.117Z,76.70
2023-09-20T06:35:56.547Z,76.58
2023-09-20T06:38:25.224Z,76.19
2023-09-20T06:40:53.906Z,75.10
2023-09-20T06:43:21.006Z,73.59
2023-09-20T06:45:51.843Z,73.77
2023-09-20T06:48:26.527Z,74.18
2023-09-20T06:50:55.561Z,74.58
2023-09-20T06:53:25.039Z,74.57
2023-09-20T06:55:52.005Z,74.54
2023-09-20T06:58:20.768Z,73.70
2023-09-20T07:00:48.412Z,73.05
2023-09-20T07:03:15.382Z,72.26
2023-09-20T07:05:42.283Z,71.32
2023-09-20T07:08:09.581Z,71.84
2023-09-20T07:10:38.088Z,70.84
2023-09-20T07:13:07.376Z,70.25
2023-09-20T07:15:36.607Z,70.82
2023-09-20T07:18:13.538Z,70.63
2023-09-20T07:20:45.341Z,70.62
2023-09-20T07:23:16.723Z,70.30
2023-09-20T07:25:44.421Z,69.33
2023-09-20T07:28:11.370Z,68.94
2023-09-20T07:30:46.265Z,69.39
2023-09-20T07:33:25.576Z,68.84
2023-09-20T07:36:00.356Z,68.42
2023-09-20T07:38:29.904Z,68.42
2023-09-20T07:41:09.814Z,68.08
2023-09-20T07:43:40.183Z,66.42
2023-09-20T07:46:07.301Z,66.04
2023-09-20T07:48:34.871Z,64.71
2023-09-20T07:51:05.469Z,64.47
2023-09-20T07:53:32.401Z,63.96
2023-09-20T07:55:58.870Z,63.78
2023-09-20T07:58:25.570Z,63.42
2023-09-20T08:00:53.819Z,62.65
2023-09-20T08:03:22.165Z,61.37
2023-09-20T08:05:54.447Z,60.90
2023-09-20T08:08:24.150Z,60.59
2023-09-20T08:11:06.736Z,59.93
2023-09-20T08:13:37.395Z,60.14
2023-09-20T08:16:10.022Z,58.36
2023-09-20T08:18:56.498Z,58.58
2023-09-20T08:21:23.259Z,59.10
2023-09-20T08:24:08.707Z,58.69
2023-09-20T08:26:54.019Z,57.13
2023-09-20T08:29:38.827Z,55.96
2023-09-20T08:32:23.625Z,58.94
2023-09-20T08:35:08.535Z,56.90
2023-09-20T08:37:53.695Z,57.91
2023-09-20T08:40:39.641Z,56.92
2023-09-20T08:43:25.482Z,56.78
2023-09-20T08:46:11.181Z,56.39
2023-09-20T08:49:01.129Z,55.62
2023-09-20T08:52:16.663Z,55.86
2023-09-20T08:55:02.660Z,54.08
2023-09-20T08:57:48.525Z,56.64
2023-09-20T09:00:29.323Z,53.51
2023-09-20T09:02:59.471Z,55.08
2023-09-20T09:05:29.380Z,54.81
2023-09-20T09:07:58.308Z,56.25
2023-09-20T09:10:25.491Z,54.59
2023-09-20T09:12:52.197Z,54.68
2023-09-20T09:15:19.166Z,54.39
2023-09-20T09:17:47.546Z,54.32
2023-09-20T09:20:22.322Z,53.91
2023-09-20T09:22:50.632Z,53.78
2023-09-20T09:25:19.791Z,51.59
2023-09-20T09:27:46.616Z,51.43
2023-09-20T09:30:15.700Z,50.98
2023-09-20T09:32:51.266Z,50.59
2023-09-20T09:35:27.741Z,51.90
2023-09-20T09:38:05.879Z,49.28
2023-09-20T09:40:32.565Z,49.70
2023-09-20T09:43:12.886Z,49.71
2023-09-20T09:45:39.738Z,48.86
2023-09-20T09:48:08.406Z,49.37
2023-09-20T09:50:39.730Z,47.61
2023-09-20T09:53:07.775Z,49.26
2023-09-20T09:55:34.850Z,48.00
2023-09-20T09:58:05.409Z,49.15
2023-09-20T10:00:34.438Z,48.50
2023-09-20T10:03:12.532Z,47.63
2023-09-20T10:05:43.902Z,46.98
2023-09-20T10:08:14.002Z,47.91
2023-09-20T10:10:42.858Z,47.01
2023-09-20T10:13:13.653Z,45.04
2023-09-20T10:15:40.641Z,43.85
2023-09-20T10:18:07.528Z,45.90
2023-09-20T10:21:06.216Z,46.71
2023-09-20T10:23:36.406Z,46.85
2023-09-20T10:26:03.192Z,44.45
2023-09-20T10:28:39.497Z,45.18
2023-09-20T10:31:06.270Z,44.80
2023-09-20T10:33:59.025Z,44.91
2023-09-20T10:36:28.456Z,44.97
2023-09-20T10:39:21.180Z,45.29
2023-09-20T10:41:53.651Z,43.23
2023-09-20T10:44:32.156Z,41.42
2023-09-20T10:47:00.056Z,42.32
2023-09-20T10:49:49.838Z,42.93
2023-09-20T10:52:34.587Z,41.64
2023-09-20T10:55:25.631Z,41.73
2023-09-20T10:57:53.081Z,40.73
2023-09-20T11:00:26.625Z,40.59
2023-09-20T11:02:53.838Z,41.67
2023-09-20T11:05:21.081Z,41.05
2023-09-20T11:07:48.109Z,42.00
2023-09-20T11:10:18.364Z,42.21
2023-09-20T11:12:45.563Z,41.78
2023-09-20T11:15:14.480Z,39.11
2023-09-20T11:17:41.155Z,39.40
2023-09-20T11:20:09.120Z,39.87
2023-09-20T11:22:37.232Z,39.75
2023-09-20T11:25:05.872Z,39.46
2023-09-20T11:27:38.168Z,39.82
2023-09-20T11:30:09.989Z,40.03
2023-09-20T11:32:40.037Z,39.18
2023-09-20T11:35:08.250Z,40.39
2023-09-20T11:37:36.722Z,40.02
2023-09-20T11:40:06.008Z,39.36
2023-09-20T11:42:35.607Z,40.55
2023-09-20T11:45:43.715Z,39.74
2023-09-20T11:47:59.458Z,40.44
2023-09-20T11:50:26.229Z,41.36
2023-09-20T11:52:54.585Z,38.23
2023-09-20T11:55:23.162Z,38.47
2023-09-20T11:57:49.998Z,38.94
2023-09-20T12:00:18.399Z,38.55
2023-09-20T12:02:46.116Z,37.51
2023-09-20T12:05:12.952Z,37.60
2023-09-20T12:07:39.668Z,37.40
2023-09-20T12:10:08.452Z,37.90
2023-09-20T12:12:35.641Z,40.53
2023-09-20T12:15:02.945Z,40.86
2023-09-20T12:17:30.688Z,39.52
2023-09-20T12:19:57.297Z,38.81
2023-09-20T12:22:23.796Z,36.13
2023-09-20T12:24:50.297Z,37.05
2023-09-20T12:27:18.759Z,35.12
2023-09-20T12:29:45.383Z,35.17
2023-09-20T12:32:12.403Z,36.63
2023-09-20T12:34:39.042Z,35.81
2023-09-20T12:37:06.626Z,36.21
2023-09-20T12:39:39.745Z,36.31
2023-09-20T12:42:08.525Z,35.73
2023-09-20T12:44:35.232Z,37.50
2023-09-20T12:47:01.770Z,35.13
2023-09-20T12:49:28.245Z,35.67
2023-09-20T12:51:54.863Z,35.64
2023-09-20T12:54:21.409Z,36.41
2023-09-20T12:56:48.403Z,34.99
2023-09-20T12:59:15.084Z,36.22
2023-09-20T13:01:41.720Z,35.64
2023-09-20T13:04:08.622Z,34.52
2023-09-20T13:06:37.810Z,35.69
2023-09-20T13:09:04.554Z,33.71
2023-09-20T13:11:31.097Z,35.29
2023-09-20T13:13:57.689Z,33.57
2023-09-20T13:16:25.934Z,35.23
2023-09-20T13:18:52.544Z,33.94
2023-09-20T13:21:19.036Z,35.93
2023-09-20T13:23:45.816Z,34.83
2023-09-20T13:26:12.908Z,37.06
2023-09-20T13:28:39.794Z,37.15
2023-09-20T13:31:08.328Z,35.48
2023-09-20T13:33:35.102Z,34.59
2023-09-20T13:36:01.759Z,36.47
2023-09-20T13:38:28.475Z,34.62
2023-09-20T13:40:56.434Z,36.50
2023-09-20T13:43:23.110Z,34.16
2023-09-20T13:45:50.079Z,36.21
2023-09-20T13:48:16.806Z,35.43
2023-09-20T13:50:44.174Z,36.36
2023-09-20T13:53:11.279Z,37.31
2023-09-20T13:55:37.979Z,37.42
2023-09-20T13:58:04.688Z,36.29
2023-09-20T14:00:31.370Z,37.07
2023-09-20T14:02:58.829Z,35.45
2023-09-20T14:05:27.639Z,34.18
2023-09-20T14:07:57.220Z,37.50
2023-09-20T14:10:25.649Z,37.19
2023-09-20T14:12:52.674Z,36.51
2023-09-20T14:15:23.099Z,36.58
2023-09-20T14:17:53.012Z,39.62
2023-09-20T14:20:22.207Z,38.82
2023-09-20T14:22:54.268Z,36.93
2023-09-20T14:25:25.453Z,37.67
2023-09-20T14:27:52.903Z,35.14
2023-09-20T14:30:20.263Z,34.98
2023-09-20T14:32:49.199Z,34.27
2023-09-20T14:35:16.833Z,37.46
2023-09-20T14:37:48.937Z,34.92
2023-09-20T14:40:25.118Z,34.71
2023-09-20T14:42:57.549Z,35.72
2023-09-20T14:45:30.589Z,34.63
2023-09-20T14:48:00.687Z,37.25
2023-09-20T14:50:27.653Z,36.49
2023-09-20T14:52:54.994Z,39.89
2023-09-20T14:55:22.005Z,36.11
2023-09-20T14:57:52.998Z,36.63
2023-09-20T15:00:20.562Z,38.11
2023-09-20T15:02:48.266Z,38.18
2023-09-20T15:05:15.864Z,38.05
2023-09-20T15:07:49.568Z,37.04
2023-09-20T15:10:18.039Z,35.50
2023-09-20T15:12:49.589Z,36.58
2023-09-20T15:15:16.701Z,35.83
2023-09-20T15:17:44.668Z,35.74
2023-09-20T15:20:12.181Z,36.99
2023-09-20T15:22:38.827Z,37.26
2023-09-20T15:25:05.977Z,40.15
2023-09-20T15:27:32.711Z,38.30
2023-09-20T15:30:00.197Z,41.80
2023-09-20T15:32:27.552Z,42.13
2023-09-20T15:34:58.450Z,39.70
2023-09-20T15:37:27.451Z,39.16
2023-09-20T15:39:55.162Z,42.55
2023-09-20T15:42:23.146Z,42.90
2023-09-20T15:44:51.425Z,41.42
2023-09-20T15:47:18.994Z,45.32
2023-09-20T15:49:46.695Z,48.80
2023-09-20T15:52:15.600Z,44.38
2023-09-20T15:54:45.267Z,46.22
2023-09-20T15:57:13.027Z,46.90
2023-09-20T15:59:40.640Z,45.19
2023-09-20T16:02:08.098Z,45.60
2023-09-20T16:04:35.209Z,45.92
2023-09-20T16:07:04.082Z,46.40
2023-09-20T16:09:30.610Z,48.72
2023-09-20T16:11:57.365Z,46.98
2023-09-20T16:14:24.519Z,47.98
2023-09-20T16:16:51.268Z,49.23
2023-09-20T16:19:17.817Z,51.00
2023-09-20T16:21:44.391Z,49.86
2023-09-20T16:24:11.010Z,49.30
2023-09-20T16:26:38.920Z,49.51
2023-09-20T16:29:05.515Z,50.26
2023-09-20T16:31:32.580Z,51.08
2023-09-20T16:33:59.363Z,51.25
2023-09-20T16:36:26.216Z,51.83
2023-09-20T16:38:52.948Z,51.70
2023-09-20T16:41:19.641Z,50.61
2023-09-20T16:43:46.303Z,50.89
2023-09-20T16:46:12.841Z,51.14
2023-09-20T16:48:39.486Z,52.39
2023-09-20T16:51:07.043Z,52.88
2023-09-20T16:53:38.220Z,53.14
2023-09-20T16:56:05.561Z,53.58
2023-09-20T16:58:34.090Z,53.85
2023-09-20T17:01:00.703Z,54.59
2023-09-20T17:03:27.376Z,55.64
2023-09-20T17:05:54.050Z,56.20
2023-09-20T17:08:20.589Z,56.81
2023-09-20T17:10:47.256Z,57.36
2023-09-20T17:13:13.862Z,58.23
2023-09-20T17:15:40.312Z,58.12
2023-09-20T17:18:07.707Z,57.45
2023-09-20T17:20:34.542Z,58.42
2023-09-20T17:23:01.070Z,58.74
2023-09-20T17:25:27.735Z,58.68
2023-09-20T17:27:54.316Z,59.17
2023-09-20T17:30:22.081Z,59.92
2023-09-20T17:32:50.093Z,58.89
2023-09-20T17:35:17.427Z,60.64
2023-09-20T17:37:44.337Z,60.29
2023-09-20T17:40:11.689Z,60.25
2023-09-20T17:42:38.954Z,59.96
2023-09-20T17:45:06.646Z,60.57
2023-09-20T17:47:35.853Z,61.46
2023-09-20T17:50:02.583Z,61.70
2023-09-20T17:52:29.794Z,62.36
2023-09-20T17:54:56.308Z,62.25
2023-09-20T17:57:24.835Z,61.94
2023-09-20T17:59:52.536Z,63.32
2023-09-20T18:02:19.400Z,62.76
2023-09-20T18:04:47.328Z,62.50
2023-09-20T18:07:14.020Z,63.35
2023-09-20T18:09:40.527Z,62.92
2023-09-20T18:12:07.445Z,64.39
2023-09-20T18:14:33.989Z,64.59
2023-09-20T18:17:00.609Z,65.26
2023-09-20T18:19:27.884Z,63.88
2023-09-20T18:21:54.750Z,64.52
2023-09-20T18:24:21.342Z,64.27
2023-09-20T18:26:49.836Z,64.84
2023-09-20T18:29:17.601Z,65.36
2023-09-20T18:31:44.624Z,64.85
2023-09-20T18:34:11.229Z,65.84
2023-09-20T18:36:37.785Z,65.32
2023-09-20T18:39:04.671Z,66.12
2023-09-20T18:41:31.462Z,66.62
2023-09-20T18:43:59.945Z,66.84
2023-09-20T18:46:27.361Z,66.59
2023-09-20T18:48:54.715Z,66.95
2023-09-20T18:51:21.500Z,67.20
2023-09-20T18:53:48.563Z,67.17
2023-09-20T18:56:16.444Z,67.33
2023-09-20T18:58:43.518Z,67.21
2023-09-20T19:01:22.770Z,67.57
2023-09-20T19:03:50.180Z,68.23
2023-09-20T19:06:21.538Z,68.13
2023-09-20T19:08:50.813Z,68.92
2023-09-20T19:11:19.309Z,68.08
2023-09-20T19:13:46.880Z,68.81
2023-09-20T19:16:16.161Z,68.34
2023-09-20T19:18:44.464Z,69.62
2023-09-20T19:21:12.418Z,69.43
2023-09-20T19:23:39.075Z,68.65
2023-09-20T19:26:06.236Z,69.14
2023-09-20T19:28:33.282Z,69.53
2023-09-20T19:31:05.251Z,69.68
2023-09-20T19:33:32.152Z,69.34
2023-09-20T19:36:00.776Z,69.09
2023-09-20T19:38:27.483Z,69.94
2023-09-20T19:40:54.315Z,69.74
2023-09-20T19:43:20.835Z,69.79
2023-09-20T19:45:47.352Z,70.16
2023-09-20T19:48:14.211Z,70.02
2023-09-20T19:50:44.033Z,69.49
2023-09-20T19:53:13.292Z,69.98
2023-09-20T19:55:41.053Z,70.11
2023-09-20T19:58:09.555Z,70.02
2023-09-20T20:00:39.407Z,70.85
2023-09-20T20:03:07.965Z,69.97
2023-09-20T20:05:34.625Z,69.88
2023-09-20T20:08:07.310Z,69.89
2023-09-20T20:10:41.374Z,69.88
2023-09-20T20:13:08.148Z,69.55
2023-09-20T20:15:34.790Z,68.54
2023-09-20T20:18:02.877Z,68.98
2023-09-20T20:20:31.987Z,68.42
2023-09-20T20:23:00.476Z,68.16
2023-09-20T20:25:39.638Z,66.71
2023-09-20T20:28:13.102Z,65.57
2023-09-20T20:30:40.430Z,64.33
2023-09-20T20:33:06.998Z,65.04
2023-09-20T20:35:33.720Z,64.56
2023-09-20T20:38:00.282Z,64.18
2023-09-20T20:40:26.872Z,62.62
2023-09-20T20:42:54.217Z,63.41
2023-09-20T20:45:21.412Z,62.54
2023-09-20T20:47:50.914Z,61.36
2023-09-20T20:50:26.264Z,62.88
2023-09-20T20:52:54.180Z,62.12
2023-09-20T20:55:23.854Z,61.53
2023-09-20T20:57:51.182Z,60.18
2023-09-20T21:00:25.912Z,59.22
2023-09-20T21:02:54.121Z,58.60
2023-09-20T21:05:25.520Z,59.29
2023-09-20T21:07:53.194Z,58.27
2023-09-20T21:10:20.788Z,57.53
2023-09-20T21:12:49.439Z,56.92
2023-09-20T21:15:17.019Z,56.61
2023-09-20T21:17:45.029Z,56.35
2023-09-20T21:20:21.438Z,56.98
2023-09-20T21:22:53.507Z,56.15
2023-09-20T21:25:24.329Z,56.60
2023-09-20T21:27:58.380Z,57.19
2023-09-20T21:30:26.835Z,57.30
2023-09-20T21:32:56.456Z,56.76
2023-09-20T21:35:25.734Z,57.08
2023-09-20T21:37:56.129Z,56.67
2023-09-20T21:40:23.912Z,58.15
2023-09-20T21:42:51.389Z,57.48
2023-09-20T21:45:19.639Z,56.91
2023-09-20T21:47:56.485Z,56.73
2023-09-20T21:50:24.928Z,58.22
2023-09-20T21:52:55.851Z,56.58
2023-09-20T21:55:23.866Z,57.05
2023-09-20T21:57:53.740Z,57.85
2023-09-20T22:00:21.273Z,57.85
2023-09-20T22:02:53.704Z,58.47
2023-09-20T22:05:24.280Z,58.02
2023-09-20T22:07:55.093Z,59.47
2023-09-20T22:10:39.075Z,58.37
2023-09-20T22:13:08.236Z,57.45
2023-09-20T22:15:36.632Z,57.35
2023-09-20T22:18:11.401Z,57.84
2023-09-20T22:20:39.380Z,57.39
2023-09-20T22:23:09.129Z,56.51
2023-09-20T22:25:35.660Z,57.15
2023-09-20T22:28:02.221Z,57.90
2023-09-20T22:30:28.821Z,57.65
2023-09-20T22:32:55.415Z,58.34
2023-09-20T22:35:22.280Z,57.85
2023-09-20T22:37:50.838Z,57.85
2023-09-20T22:40:18.984Z,58.31
2023-09-20T22:42:51.083Z,58.68
2023-09-20T22:45:23.511Z,58.22
2023-09-20T22:47:54.979Z,58.21
2023-09-20T22:50:24.566Z,59.91
2023-09-20T22:52:53.908Z,58.83
2023-09-20T22:55:21.458Z,59.52
2023-09-20T22:57:48.313Z,60.06
2023-09-20T23:00:22.775Z,59.47
2023-09-20T23:02:50.784Z,60.43
2023-09-20T23:05:19.589Z,61.35
2023-09-20T23:07:54.936Z,62.87
2023-09-20T23:10:25.009Z,63.94
2023-09-20T23:12:53.693Z,64.28
2023-09-20T23:15:21.714Z,65.16
2023-09-20T23:17:52.304Z,65.56
2023-09-20T23:20:38.651Z,66.00
2023-09-20T23:23:06.521Z,66.16
2023-09-20T23:25:37.399Z,66.64
2023-09-20T23:28:12.747Z,67.08
2023-09-20T23:30:41.418Z,67.25
2023-09-20T23:33:09.920Z,66.69
2023-09-20T23:35:40.557Z,67.17
2023-09-20T23:38:14.254Z,67.68
2023-09-20T23:40:44.159Z,67.85
2023-09-20T23:43:12.143Z,67.93
2023-09-20T23:45:38.665Z,67.49
2023-09-20T23:48:05.380Z,67.35
2023-09-20T23:50:31.955Z,66.45
2023-09-20T23:52:58.443Z,66.76
2023-09-20T23:55:25.106Z,65.46
2023-09-20T23:57:52.148Z,64.90
